Time;durP1;ratioP1;P1;durP2;ratioP2;P2;SDS_P1;SDS_P2;PMS_P1;PMS_P2;Temp;Humidity;BMP_temperature;BMP_pressure;BME280_temperature;BME280_humidity;BME280_pressure;Samples;Min_cycle;Max_cycle;Signal;HPM_P1;HPM_P2
2023/09/10 00:01:10;;;;;;;17.73;11.73;;;19.30;1.00;;;;;;4991812;28;20182;-74
2023/09/10 00:03:36;;;;;;;17.83;11.70;;;19.20;1.00;;;;;;4991319;28;20557;-74
2023/09/10 00:06:05;;;;;;;15.60;11.70;;;19.20;1.00;;;;;;4991992;28;20433;-74
2023/09/10 00:08:31;;;;;;;14.30;11.17;;;19.20;1.00;;;;;;4990915;28;20179;-73
2023/09/10 00:10:56;;;;;;;13.60;10.90;;;19.20;1.00;;;;;;4991622;28;20529;-73
2023/09/10 00:13:22;;;;;;;14.73;12.10;;;19.10;1.00;;;;;;4991273;28;20548;-73
2023/09/10 00:15:48;;;;;;;14.80;11.80;;;19.10;1.00;;;;;;4991653;28;20750;-74
2023/09/10 00:18:14;;;;;;;15.43;11.47;;;19.00;1.00;;;;;;4991794;28;20508;-75
2023/09/10 00:20:40;;;;;;;15.33;11.43;;;19.00;1.00;;;;;;4991305;28;20653;-74
2023/09/10 00:23:06;;;;;;;16.40;12.00;;;18.90;1.00;;;;;;4991702;28;20441;-75
2023/09/10 00:25:31;;;;;;;12.90;11.00;;;18.90;1.00;;;;;;4989751;28;20209;-75
2023/09/10 00:27:57;;;;;;;12.93;10.90;;;18.90;1.00;;;;;;4991503;28;20226;-74
2023/09/10 00:30:23;;;;;;;16.17;11.00;;;18.90;1.00;;;;;;4990878;28;20199;-75
2023/09/10 00:32:49;;;;;;;15.63;11.80;;;18.90;1.00;;;;;;4973438;28;20445;-74
2023/09/10 00:35:14;;;;;;;13.00;11.40;;;18.80;1.00;;;;;;4991179;28;20207;-74
2023/09/10 00:37:40;;;;;;;14.27;11.80;;;18.80;1.00;;;;;;4990971;28;20191;-73
2023/09/10 00:40:08;;;;;;;12.33;10.70;;;18.70;1.00;;;;;;4991487;28;20605;-73
2023/09/10 00:42:33;;;;;;;14.40;11.10;;;18.70;1.00;;;;;;4990835;28;20199;-74
2023/09/10 00:44:59;;;;;;;14.03;10.77;;;18.70;1.00;;;;;;4990664;28;20454;-74
2023/09/10 00:47:25;;;;;;;14.80;12.47;;;18.70;1.00;;;;;;4991270;28;20558;-77
2023/09/10 00:49:51;;;;;;;14.60;10.80;;;18.60;1.00;;;;;;4983474;28;20183;-74
2023/09/10 00:52:17;;;;;;;12.73;11.33;;;18.60;1.00;;;;;;4991005;28;20442;-75
2023/09/10 00:54:43;;;;;;;19.10;11.30;;;18.60;1.00;;;;;;4989949;28;20214;-73
2023/09/10 00:57:09;;;;;;;16.13;11.53;;;18.60;1.00;;;;;;4991049;28;20476;-73
2023/09/10 00:59:35;;;;;;;12.80;10.60;;;18.50;1.00;;;;;;4990488;28;20186;-73
2023/09/10 01:02:02;;;;;;;13.93;11.50;;;18.50;1.00;;;;;;4985765;28;20190;-74
2023/09/10 01:04:28;;;;;;;15.70;12.13;;;18.50;1.00;;;;;;4990402;28;20481;-73
2023/09/10 01:06:54;;;;;;;17.07;11.37;;;18.50;1.00;;;;;;4990968;28;20438;-74
2023/09/10 01:09:20;;;;;;;15.07;11.00;;;18.50;1.00;;;;;;4990931;28;20850;-74
2023/09/10 01:12:04;;;;;;;15.93;11.10;;;18.40;1.00;;;;;;4990424;28;20692;-73
2023/09/10 01:14:42;;;;;;;13.63;10.87;;;18.40;1.00;;;;;;4990099;28;20237;-74
2023/09/10 01:17:28;;;;;;;15.07;11.00;;;18.40;1.00;;;;;;4973488;28;20438;-74
2023/09/10 01:20:23;;;;;;;13.67;11.43;;;18.40;1.00;;;;;;4990054;28;20418;-74
2023/09/10 01:23:13;;;;;;;12.93;10.60;;;18.40;1.00;;;;;;4982986;28;20849;-74
2023/09/10 01:25:40;;;;;;;13.10;10.17;;;18.40;1.00;;;;;;4989797;28;20479;-74
2023/09/10 01:28:06;;;;;;;13.53;10.80;;;18.40;1.00;;;;;;4990612;28;20445;-73
2023/09/10 01:30:32;;;;;;;13.37;11.97;;;18.30;1.00;;;;;;4990203;28;20913;-75
2023/09/10 01:33:25;;;;;;;14.27;11.00;;;18.30;1.00;;;;;;4990090;28;20191;-74
2023/09/10 01:36:14;;;;;;;14.90;11.50;;;18.40;1.00;;;;;;4989941;28;20448;-76
2023/09/10 01:39:02;;;;;;;12.80;11.30;;;18.30;1.00;;;;;;4990270;28;20426;-75
2023/09/10 01:41:30;;;;;;;13.50;11.50;;;18.30;1.00;;;;;;4990482;28;20458;-76
2023/09/10 01:43:57;;;;;;;12.53;11.23;;;18.20;1.00;;;;;;4972449;28;20453;-73
2023/09/10 01:46:24;;;;;;;18.93;11.37;;;18.20;1.00;;;;;;4990237;28;20430;-73
2023/09/10 01:48:50;;;;;;;14.93;11.77;;;18.30;1.00;;;;;;4990011;28;20434;-74
2023/09/10 01:51:17;;;;;;;14.30;11.10;;;18.30;1.00;;;;;;4972678;28;20778;-74
2023/09/10 01:53:42;;;;;;;15.93;11.27;;;18.20;1.00;;;;;;4989244;28;20214;-74
2023/09/10 01:56:08;;;;;;;14.97;12.10;;;18.20;1.00;;;;;;4989891;28;20782;-74
2023/09/10 01:58:34;;;;;;;14.50;11.20;;;18.20;1.00;;;;;;4989697;28;20564;-71
2023/09/10 02:00:59;;;;;;;12.63;10.40;;;18.20;1.00;;;;;;4983711;28;20233;-74
2023/09/10 02:03:24;;;;;;;15.20;11.13;;;18.10;1.00;;;;;;4989866;28;20195;-74
2023/09/10 02:05:50;;;;;;;16.93;11.20;;;18.10;1.00;;;;;;4989417;28;20259;-75
2023/09/10 02:08:15;;;;;;;15.13;11.63;;;18.00;1.00;;;;;;4989664;28;20193;-73
2023/09/10 02:10:41;;;;;;;16.63;11.17;;;17.90;1.00;;;;;;4989649;28;20679;-73
2023/09/10 02:13:06;;;;;;;13.47;10.60;;;17.90;1.00;;;;;;4989711;28;20297;-73
2023/09/10 02:15:32;;;;;;;14.57;11.20;;;17.90;1.00;;;;;;4989693;28;20198;-72
2023/09/10 02:17:57;;;;;;;16.87;11.13;;;17.90;1.00;;;;;;4981984;28;20542;-74
2023/09/10 02:20:23;;;;;;;14.57;11.37;;;17.80;1.00;;;;;;4989845;28;20286;-75
2023/09/10 02:22:48;;;;;;;13.30;11.03;;;17.70;1.00;;;;;;4989205;28;20187;-74
2023/09/10 02:25:14;;;;;;;13.80;10.90;;;17.70;1.00;;;;;;4989488;28;20199;-74
2023/09/10 02:27:40;;;;;;;13.07;11.17;;;17.80;1.00;;;;;;4989319;28;20270;-73
2023/09/10 02:30:07;;;;;;;16.27;10.90;;;20.80;1.00;;;;;;4990214;28;20641;-76
2023/09/10 02:32:33;;;;;;;13.40;12.00;;;17.80;1.00;;;;;;4974514;28;20187;-74
2023/09/10 02:34:58;;;;;;;14.00;11.97;;;17.80;1.00;;;;;;4993103;28;20517;-74
2023/09/10 02:37:24;;;;;;;13.63;11.87;;;17.70;1.00;;;;;;4993502;28;20597;-74
2023/09/10 02:39:50;;;;;;;13.00;11.53;;;17.70;1.00;;;;;;4993454;28;20190;-74
2023/09/10 02:42:17;;;;;;;14.00;12.50;;;17.70;1.00;;;;;;4994066;28;20234;-73
2023/09/10 02:44:42;;;;;;;14.60;12.03;;;;;;;;;;4993625;28;20695;-75
2023/09/10 02:47:08;;;;;;;17.50;14.07;;;17.80;1.00;;;;;;4994320;28;20429;-74
2023/09/10 02:49:34;;;;;;;17.43;14.57;;;17.80;1.00;;;;;;4994392;28;20190;-74
2023/09/10 02:51:59;;;;;;;16.90;13.27;;;17.90;1.00;;;;;;4993247;28;20183;-74
2023/09/10 02:54:25;;;;;;;14.37;12.57;;;17.70;1.00;;;;;;4993376;28;20222;-76
2023/09/10 02:56:50;;;;;;;14.33;11.90;;;17.70;1.00;;;;;;4993259;28;20279;-73
2023/09/10 02:59:25;;;;;;;17.63;11.53;;;17.60;1.00;;;;;;4993515;28;20684;-73
2023/09/10 03:01:52;;;;;;;20.37;13.37;;;17.50;1.00;;;;;;4986585;28;20268;-74
2023/09/10 03:04:18;;;;;;;14.20;11.80;;;17.50;1.00;;;;;;4993309;28;20456;-73
2023/09/10 03:06:45;;;;;;;13.80;11.67;;;17.40;1.00;;;;;;4993166;28;20991;-74
2023/09/10 03:09:14;;;;;;;12.93;11.00;;;17.40;1.00;;;;;;4993671;28;20194;-74
2023/09/10 03:11:41;;;;;;;12.40;10.67;;;17.40;1.00;;;;;;4993250;28;20437;-74
2023/09/10 03:14:08;;;;;;;16.07;10.90;;;17.40;1.00;;;;;;4993178;28;20832;-74
2023/09/10 03:16:34;;;;;;;13.27;10.70;;;17.40;1.00;;;;;;4975849;28;20488;-74
2023/09/10 03:19:00;;;;;;;13.60;11.53;;;17.40;1.00;;;;;;4992895;28;20434;-75
2023/09/10 03:21:26;;;;;;;14.37;11.20;;;17.30;1.00;;;;;;4993389;28;20436;-75
2023/09/10 03:23:52;;;;;;;17.80;11.97;;;17.40;1.00;;;;;;4992814;28;20191;-74
2023/09/10 03:26:18;;;;;;;15.10;12.07;;;17.40;1.00;;;;;;4993146;28;20444;-73
2023/09/10 03:28:43;;;;;;;12.00;10.70;;;17.40;1.00;;;;;;4992767;28;20669;-74
2023/09/10 03:31:09;;;;;;;16.03;11.53;;;17.40;1.00;;;;;;4992020;28;20274;-74
2023/09/10 03:33:35;;;;;;;17.33;13.07;;;17.40;1.00;;;;;;4988742;28;20199;-74
2023/09/10 03:36:01;;;;;;;15.97;13.50;;;17.40;1.00;;;;;;4992583;28;20422;-75
2023/09/10 03:38:26;;;;;;;16.97;12.40;;;17.30;1.00;;;;;;4993277;28;20184;-73
2023/09/10 03:40:52;;;;;;;15.90;12.57;;;17.30;1.00;;;;;;4992572;28;20183;-73
2023/09/10 03:43:17;;;;;;;14.30;12.30;;;17.20;1.00;;;;;;4991812;28;20537;-71
2023/09/10 03:45:43;;;;;;;12.83;10.87;;;17.20;1.00;;;;;;4992366;28;20214;-75
2023/09/10 03:48:09;;;;;;;13.00;11.10;;;17.10;1.00;;;;;;4992838;28;20198;-75
2023/09/10 03:50:34;;;;;;;14.83;11.50;;;17.10;1.00;;;;;;4992849;28;20183;-73
2023/09/10 03:53:00;;;;;;;17.10;11.53;;;17.00;1.00;;;;;;4992214;28;20190;-73
2023/09/10 03:55:25;;;;;;;13.20;11.63;;;16.90;1.00;;;;;;4986276;28;20211;-75
2023/09/10 03:57:51;;;;;;;19.27;11.73;;;16.90;1.00;;;;;;4990174;28;20175;-74
2023/09/10 04:00:17;;;;;;;14.47;11.77;;;16.80;1.00;;;;;;4988611;28;20711;-74
2023/09/10 04:02:42;;;;;;;14.93;11.70;;;16.80;1.00;;;;;;4988715;28;20187;-75
2023/09/10 04:05:10;;;;;;;14.57;12.30;;;16.70;1.00;;;;;;4992204;28;20228;-74
2023/09/10 04:07:36;;;;;;;14.00;11.60;;;16.60;1.00;;;;;;4992431;28;20274;-73
2023/09/10 04:10:02;;;;;;;13.40;11.30;;;16.60;1.00;;;;;;4992057;28;20529;-73
2023/09/10 04:12:27;;;;;;;12.77;11.23;;;16.60;1.00;;;;;;4974936;28;20205;-73
2023/09/10 04:14:53;;;;;;;14.60;11.67;;;16.60;1.00;;;;;;4991229;28;20474;-74
2023/09/10 04:17:18;;;;;;;15.23;10.90;;;16.70;1.00;;;;;;4992194;28;20190;-75
2023/09/10 04:19:44;;;;;;;14.80;11.60;;;16.60;1.00;;;;;;4991899;28;20658;-73
2023/09/10 04:22:10;;;;;;;19.13;11.50;;;16.60;1.00;;;;;;4992360;28;20229;-74
2023/09/10 04:24:35;;;;;;;13.60;10.70;;;16.40;1.00;;;;;;4991766;28;20230;-74
2023/09/10 04:27:01;;;;;;;15.57;11.27;;;16.50;1.00;;;;;;4991978;28;20682;-76
2023/09/10 04:29:27;;;;;;;13.70;10.47;;;16.50;1.00;;;;;;4992025;28;20386;-76
2023/09/10 04:31:53;;;;;;;14.00;10.90;;;16.40;1.00;;;;;;4971589;28;21008;-73
2023/09/10 04:34:18;;;;;;;12.77;11.17;;;16.30;1.00;;;;;;4991614;28;20215;-73
2023/09/10 04:36:43;;;;;;;15.00;12.20;;;16.50;1.00;;;;;;4991911;28;20234;-74
2023/09/10 04:39:09;;;;;;;16.73;11.30;;;16.60;1.00;;;;;;4991557;28;20186;-74
2023/09/10 04:41:35;;;;;;;15.30;11.70;;;16.60;1.00;;;;;;4991450;28;20183;-74
2023/09/10 04:44:04;;;;;;;12.90;11.07;;;16.60;1.00;;;;;;4990763;28;20685;-74
2023/09/10 04:46:30;;;;;;;12.83;10.67;;;16.60;1.00;;;;;;4991199;28;20462;-74
2023/09/10 04:48:57;;;;;;;13.40;10.90;;;16.70;1.00;;;;;;4973371;28;20465;-74
2023/09/10 04:51:23;;;;;;;15.23;11.63;;;16.80;1.00;;;;;;4974001;28;20195;-74
2023/09/10 04:53:48;;;;;;;14.00;11.40;;;16.70;1.00;;;;;;4990504;28;20462;-72
2023/09/10 04:56:14;;;;;;;16.10;11.30;;;16.70;1.00;;;;;;4990887;28;20187;-73
2023/09/10 04:58:39;;;;;;;13.73;11.17;;;16.70;1.00;;;;;;4991279;28;20226;-74
2023/09/10 05:01:05;;;;;;;15.47;11.90;;;16.80;1.00;;;;;;4990485;28;20187;-73
2023/09/10 05:03:31;;;;;;;14.13;12.00;;;17.00;1.00;;;;;;4990897;28;20665;-75
2023/09/10 05:06:00;;;;;;;14.17;11.20;;;16.90;1.00;;;;;;4990142;28;20203;-74
2023/09/10 05:08:27;;;;;;;14.90;12.23;;;16.90;1.00;;;;;;4973485;28;20198;-73
2023/09/10 05:10:52;;;;;;;13.93;11.83;;;16.90;1.00;;;;;;4990499;28;20513;-73
2023/09/10 05:13:18;;;;;;;13.10;11.70;;;17.00;1.00;;;;;;4990712;28;20860;-71
2023/09/10 05:15:48;;;;;;;15.53;13.23;;;17.00;1.00;;;;;;4990324;28;20210;-74
2023/09/10 05:18:14;;;;;;;16.70;12.43;;;17.00;1.00;;;;;;4990755;28;20186;-74
2023/09/10 05:20:39;;;;;;;20.00;12.07;;;16.90;1.00;;;;;;4990609;28;20450;-72
2023/09/10 05:23:05;;;;;;;15.73;12.50;;;17.00;1.00;;;;;;4990345;28;20360;-73
2023/09/10 05:25:30;;;;;;;13.40;11.57;;;17.00;1.00;;;;;;4990552;28;20318;-75
2023/09/10 05:27:56;;;;;;;17.03;12.93;;;17.10;1.00;;;;;;4990248;28;20434;-75
2023/09/10 05:30:22;;;;;;;19.00;12.83;;;17.10;1.00;;;;;;4990375;28;20288;-73
2023/09/10 05:32:47;;;;;;;14.30;11.90;;;17.00;1.00;;;;;;4972735;28;20202;-74
2023/09/10 05:35:13;;;;;;;17.60;12.37;;;17.00;1.00;;;;;;4989935;28;20215;-74
2023/09/10 05:37:38;;;;;;;15.73;12.30;;;17.00;1.00;;;;;;4990376;28;20210;-74
2023/09/10 05:40:04;;;;;;;14.47;11.87;;;17.10;1.00;;;;;;4990082;28;20604;-73
2023/09/10 05:42:30;;;;;;;13.97;12.20;;;17.10;1.00;;;;;;4990291;28;20193;-74
2023/09/10 05:44:55;;;;;;;15.20;12.20;;;17.20;1.00;;;;;;4989493;28;20454;-72
2023/09/10 05:47:22;;;;;;;16.97;12.43;;;17.20;1.00;;;;;;4990270;28;20657;-75
2023/09/10 05:49:48;;;;;;;15.60;12.60;;;17.40;1.00;;;;;;4990457;28;20190;-73
2023/09/10 05:52:13;;;;;;;13.53;12.10;;;17.50;1.00;;;;;;4989907;28;20513;-74
2023/09/10 05:54:39;;;;;;;16.00;12.37;;;17.60;1.00;;;;;;4989713;28;20554;-75
2023/09/10 05:57:05;;;;;;;15.63;13.00;;;17.70;1.00;;;;;;4989675;28;20183;-74
2023/09/10 05:59:30;;;;;;;15.50;13.40;;;17.80;1.00;;;;;;4990019;28;20187;-73
2023/09/10 06:01:56;;;;;;;17.10;13.83;;;17.90;1.00;;;;;;4988565;28;20183;-74
2023/09/10 06:04:21;;;;;;;17.87;14.53;;;18.00;1.00;;;;;;4989571;28;20215;-76
2023/09/10 06:06:47;;;;;;;19.20;14.43;;;18.10;1.00;;;;;;4989560;28;20515;-74
2023/09/10 06:09:13;;;;;;;16.57;13.17;;;18.20;1.00;;;;;;4989647;28;20557;-73
2023/09/10 06:11:38;;;;;;;16.03;13.90;;;18.30;1.00;;;;;;4972408;28;20189;-74
2023/09/10 06:14:04;;;;;;;15.67;13.93;;;18.60;1.00;;;;;;4988950;28;20213;-74
2023/09/10 06:16:29;;;;;;;14.30;12.80;;;18.60;1.00;;;;;;4989899;28;20190;-74
2023/09/10 06:18:55;;;;;;;15.90;13.57;;;18.70;1.00;;;;;;4989748;28;20211;-74
2023/09/10 06:21:20;;;;;;;19.97;13.33;;;19.00;1.00;;;;;;4989846;28;20325;-76
2023/09/10 06:23:46;;;;;;;18.27;13.10;;;19.50;1.00;;;;;;4989366;28;20205;-74
2023/09/10 06:26:12;;;;;;;20.60;13.80;;;19.50;1.00;;;;;;4989190;28;20277;-73
2023/09/10 06:28:38;;;;;;;21.00;13.90;;;19.80;1.00;;;;;;4989592;28;20671;-73
2023/09/10 06:31:06;;;;;;;17.73;13.73;;;20.20;1.00;;;;;;4988981;28;20465;-74
2023/09/10 06:33:32;;;;;;;16.63;12.73;;;20.80;1.00;;;;;;4989476;28;20217;-74
2023/09/10 06:35:57;;;;;;;15.97;13.30;;;21.40;1.00;;;;;;4989168;28;20446;-71
2023/09/10 06:38:23;;;;;;;15.37;12.83;;;22.10;1.00;;;;;;4989745;28;20198;-74
2023/09/10 06:40:51;;;;;;;14.63;12.07;;;22.90;1.00;;;;;;4972047;28;20565;-74
2023/09/10 06:43:16;;;;;;;13.50;12.10;;;23.80;1.00;;;;;;4989088;28;20280;-74
2023/09/10 06:45:43;;;;;;;16.40;13.07;;;24.40;1.00;;;;;;4989412;28;20963;-75
2023/09/10 06:48:08;;;;;;;16.00;14.13;;;24.60;1.00;;;;;;4989411;28;20175;-74
2023/09/10 06:50:35;;;;;;;16.73;14.07;;;24.40;1.00;;;;;;4989880;28;20186;-73
2023/09/10 06:53:00;;;;;;;15.90;14.20;;;23.90;1.00;;;;;;4989139;28;20282;-72
2023/09/10 06:55:26;;;;;;;16.70;13.13;;;23.30;1.00;;;;;;4988645;28;20428;-74
2023/09/10 06:57:52;;;;;;;16.00;13.87;;;23.30;1.00;;;;;;4989356;28;20217;-73
2023/09/10 07:00:18;;;;;;;15.87;13.53;;;23.70;1.00;;;;;;4987798;28;20238;-74
2023/09/10 07:02:43;;;;;;;22.10;13.67;;;24.40;1.00;;;;;;4989503;28;20209;-73
2023/09/10 07:05:09;;;;;;;20.13;14.20;;;24.40;1.00;;;;;;4988877;28;20936;-72
2023/09/10 07:07:35;;;;;;;15.87;14.20;;;24.10;1.00;;;;;;4989435;28;20186;-74
2023/09/10 07:10:01;;;;;;;15.53;13.70;;;23.70;1.00;;;;;;4989113;28;20425;-72
2023/09/10 07:12:26;;;;;;;22.93;14.50;;;23.60;1.00;;;;;;4989247;28;20313;-75
2023/09/10 07:14:52;;;;;;;18.80;14.03;;;23.30;1.00;;;;;;4988880;28;20206;-74
2023/09/10 07:17:17;;;;;;;16.27;13.70;;;23.40;1.00;;;;;;4989229;28;20178;-74
2023/09/10 07:19:43;;;;;;;17.00;13.70;;;23.90;1.00;;;;;;4992111;28;20506;-73
2023/09/10 07:22:08;;;;;;;15.13;13.37;;;24.70;1.00;;;;;;4992649;28;20601;-74
2023/09/10 07:24:34;;;;;;;15.67;13.00;;;26.70;1.00;;;;;;4992575;28;20206;-74
2023/09/10 07:27:01;;;;;;;17.10;12.60;;;27.30;1.00;;;;;;4992751;28;20205;-75
2023/09/10 07:29:27;;;;;;;13.52;12.13;;;28.20;1.00;;;;;;4992876;28;20253;-74
2023/09/10 07:31:52;;;;;;;19.45;12.48;;;28.60;1.00;;;;;;4986161;28;20278;-74
2023/09/10 07:34:19;;;;;;;16.73;12.98;;;29.10;1.00;;;;;;4991037;28;20206;-75
2023/09/10 07:36:45;;;;;;;14.15;12.75;;;29.70;1.00;;;;;;4993008;28;20621;-75
2023/09/10 07:39:11;;;;;;;14.75;13.25;;;30.30;1.00;;;;;;4992387;28;20189;-75
2023/09/10 07:41:37;;;;;;;13.32;12.02;;;31.00;1.00;;;;;;4992446;28;20645;-75
2023/09/10 07:44:02;;;;;;;16.67;11.13;;;31.60;1.00;;;;;;4992258;28;20210;-74
2023/09/10 07:46:29;;;;;;;12.10;10.90;;;31.70;1.00;;;;;;4992600;28;20186;-75
2023/09/10 07:48:54;;;;;;;14.50;11.40;;;32.30;1.00;;;;;;4992666;28;20270;-75
2023/09/10 07:51:20;;;;;;;12.00;10.80;;;32.80;1.00;;;;;;4991956;28;20277;-75
2023/09/10 07:53:46;;;;;;;13.30;11.02;;;33.40;1.00;;;;;;4992133;28;20207;-75
2023/09/10 07:56:11;;;;;;;14.02;11.50;;;33.60;1.00;;;;;;4992005;28;20183;-74
2023/09/10 07:58:37;;;;;;;13.63;11.20;;;33.10;1.00;;;;;;4992355;28;20182;-76
2023/09/10 08:01:03;;;;;;;13.55;12.10;;;33.20;1.00;;;;;;4989711;28;20229;-74
2023/09/10 08:03:28;;;;;;;13.43;11.52;;;33.50;1.00;;;;;;4991709;28;20275;-74
2023/09/10 08:05:54;;;;;;;13.07;11.48;;;33.60;1.00;;;;;;4974573;28;20316;-75
2023/09/10 08:08:20;;;;;;;13.50;12.10;;;33.80;1.00;;;;;;4991914;28;20221;-75
2023/09/10 08:10:46;;;;;;;12.48;11.27;;;34.00;1.00;;;;;;4992226;28;20222;-75
2023/09/10 08:13:14;;;;;;;11.60;10.50;;;34.70;1.00;;;;;;4991612;28;20179;-75
2023/09/10 08:15:41;;;;;;;15.32;10.35;;;35.30;1.00;;;;;;4991702;28;20273;-72
2023/09/10 08:18:11;;;;;;;11.85;10.65;;;35.50;1.00;;;;;;4991576;28;20183;-73
2023/09/10 08:20:41;;;;;;;12.23;10.20;;;35.30;1.00;;;;;;4974336;28;20183;-74
2023/09/10 08:23:07;;;;;;;11.80;10.60;;;35.50;1.00;;;;;;4991391;28;20633;-76
2023/09/10 08:25:33;;;;;;;12.20;10.18;;;35.50;1.00;;;;;;4991432;28;20208;-73
2023/09/10 08:27:59;;;;;;;11.95;9.77;;;35.80;1.00;;;;;;4983564;28;20621;-75
2023/09/10 08:30:25;;;;;;;11.35;10.20;;;36.50;1.00;;;;;;4990968;28;20711;-75
2023/09/10 08:32:51;;;;;;;11.10;9.95;;;36.20;1.00;;;;;;4991483;28;20506;-75
2023/09/10 08:35:21;;;;;;;14.25;10.57;;;36.30;1.00;;;;;;4973417;28;20202;-77
2023/09/10 08:37:47;;;;;;;16.17;11.02;;;36.30;1.00;;;;;;4991371;28;20205;-77
2023/09/10 08:40:15;;;;;;;10.75;9.75;;;36.50;1.00;;;;;;4991593;28;20167;-76
2023/09/10 08:43:05;;;;;;;10.82;9.73;;;37.00;1.00;;;;;;4991874;28;20269;-73
2023/09/10 08:45:31;;;;;;;10.65;9.55;;;37.30;1.00;;;;;;4991958;28;20195;-76
2023/09/10 08:48:00;;;;;;;14.75;9.40;;;37.60;1.00;;;;;;4991838;28;20186;-76
2023/09/10 08:50:25;;;;;;;10.93;9.63;;;37.70;1.00;;;;;;4991428;28;20178;-76
2023/09/10 08:52:53;;;;;;;15.63;9.90;;;38.10;1.00;;;;;;4991671;28;20189;-75
2023/09/10 08:55:18;;;;;;;10.85;9.73;;;38.50;1.00;;;;;;4982933;28;20199;-75
2023/09/10 08:57:45;;;;;;;10.35;9.30;;;38.60;1.00;;;;;;4991587;28;20181;-75
2023/09/10 09:00:12;;;;;;;10.90;9.45;;;38.90;1.00;;;;;;4988328;28;20765;-73
2023/09/10 09:02:42;;;;;;;10.75;9.65;;;38.80;1.00;;;;;;4991560;28;20206;-76
2023/09/10 09:05:09;;;;;;;10.40;8.98;;;38.90;1.00;;;;;;4991313;28;20205;-75
2023/09/10 09:07:57;;;;;;;10.80;8.63;;;38.80;1.00;;;;;;4991329;28;20182;-75
2023/09/10 09:10:27;;;;;;;13.23;9.75;;;38.80;1.00;;;;;;4990708;28;20281;-77
2023/09/10 09:13:03;;;;;;;10.15;8.90;;;39.40;1.00;;;;;;4991338;28;20557;-76
2023/09/10 09:15:30;;;;;;;9.77;8.77;;;40.30;1.00;;;;;;4990740;28;20285;-75
2023/09/10 09:17:56;;;;;;;11.18;9.13;;;40.80;1.00;;;;;;4991404;28;20187;-76
2023/09/10 09:20:24;;;;;;;10.27;8.60;;;41.20;1.00;;;;;;4988827;28;20186;-76
2023/09/10 09:23:00;;;;;;;9.98;8.98;;;41.60;1.00;;;;;;4991166;28;20179;-75
2023/09/10 09:25:26;;;;;;;10.13;9.13;;;41.40;1.00;;;;;;4990502;28;20202;-75
2023/09/10 09:27:54;;;;;;;9.38;8.35;;;41.50;1.00;;;;;;4990796;28;20178;-75
2023/09/10 09:30:20;;;;;;;10.07;9.07;;;41.50;1.00;;;;;;4990645;28;20211;-75
2023/09/10 09:32:46;;;;;;;9.70;8.70;;;41.40;1.00;;;;;;4973122;28;20190;-75
2023/09/10 09:35:11;;;;;;;9.82;8.82;;;41.50;1.00;;;;;;4990482;28;20206;-76
2023/09/10 09:37:37;;;;;;;10.23;9.20;;;41.50;1.00;;;;;;4990541;28;20190;-75
2023/09/10 09:40:04;;;;;;;9.75;8.70;;;41.90;1.00;;;;;;4990957;28;20175;-75
2023/09/10 09:42:29;;;;;;;9.50;8.68;;;42.20;1.00;;;;;;4989494;28;20190;-76
2023/09/10 09:44:55;;;;;;;10.32;8.55;;;42.70;1.00;;;;;;4990613;28;20681;-75
2023/09/10 09:47:21;;;;;;;13.68;8.65;;;42.90;1.00;;;;;;4990325;28;20229;-75
2023/09/10 09:49:50;;;;;;;9.85;8.85;;;43.20;1.00;;;;;;4990736;28;20665;-75
2023/09/10 09:52:20;;;;;;;12.98;8.02;;;43.40;1.00;;;;;;4990302;28;20553;-73
2023/09/10 09:54:47;;;;;;;10.55;8.02;;;43.60;1.00;;;;;;4990141;28;20268;-77
2023/09/10 09:57:13;;;;;;;9.32;8.43;;;43.80;1.00;;;;;;4990447;28;20175;-76
2023/09/10 09:59:38;;;;;;;10.40;8.63;;;44.00;1.00;;;;;;4972745;28;20237;-77
2023/09/10 10:02:04;;;;;;;11.13;8.55;;;43.80;1.00;;;;;;4986669;28;20174;-75
2023/09/10 10:04:33;;;;;;;8.93;7.72;;;43.60;1.00;;;;;;4972367;28;20206;-75
2023/09/10 10:07:01;;;;;;;8.90;8.00;;;43.80;1.00;;;;;;4990814;28;20236;-77
2023/09/10 10:09:37;;;;;;;9.93;7.93;;;44.10;1.00;;;;;;4989912;28;20187;-74
2023/09/10 10:12:07;;;;;;;8.77;7.88;;;43.90;1.00;;;;;;4990447;28;20186;-75
2023/09/10 10:14:36;;;;;;;9.88;8.25;;;44.00;1.00;;;;;;4989591;28;20213;-76
2023/09/10 10:17:05;;;;;;;9.40;8.40;;;44.00;1.00;;;;;;4972804;28;20194;-75
2023/09/10 10:19:32;;;;;;;8.85;7.78;;;44.20;1.00;;;;;;4972594;28;20221;-75
2023/09/10 10:21:59;;;;;;;10.75;7.93;;;44.10;1.00;;;;;;4990049;28;20277;-75
2023/09/10 10:24:25;;;;;;;9.32;7.55;;;44.30;1.00;;;;;;4989599;28;20214;-75
2023/09/10 10:26:52;;;;;;;9.85;8.00;;;44.40;1.00;;;;;;4989858;28;20190;-76
2023/09/10 10:29:18;;;;;;;13.80;8.00;;;44.20;1.00;;;;;;4989814;28;20201;-77
2023/09/10 10:31:47;;;;;;;10.25;7.60;;;44.20;1.00;;;;;;4989827;28;20193;-74
2023/09/10 10:34:20;;;;;;;8.88;7.97;;;43.80;1.00;;;;;;4989889;28;20268;-74
2023/09/10 10:37:01;;;;;;;8.88;7.43;;;43.80;1.00;;;;;;4982472;28;20174;-75
2023/09/10 10:39:41;;;;;;;11.80;7.10;;;43.90;1.00;;;;;;4989810;28;20301;-75
2023/09/10 10:42:09;;;;;;;10.05;7.90;;;44.20;1.00;;;;;;4990075;28;20241;-75
2023/09/10 10:44:36;;;;;;;8.57;7.68;;;45.30;1.00;;;;;;4989107;28;20198;-75
2023/09/10 10:47:18;;;;;;;7.78;6.97;;;45.50;1.00;;;;;;4989500;28;20187;-75
2023/09/10 10:49:55;;;;;;;9.90;7.47;;;45.60;1.00;;;;;;4972116;28;20234;-76
2023/09/10 10:52:31;;;;;;;11.45;6.70;;;45.40;1.00;;;;;;4972322;28;20190;-72
2023/09/10 10:54:57;;;;;;;8.45;7.57;;;45.20;1.00;;;;;;4993102;28;20206;-74
2023/09/10 10:57:24;;;;;;;8.40;7.40;;;45.30;1.00;;;;;;4992879;28;20721;-74
2023/09/10 10:59:50;;;;;;;7.97;7.13;;;45.40;1.00;;;;;;4992904;28;20237;-75
2023/09/10 11:02:24;;;;;;;7.82;7.03;;;45.60;1.00;;;;;;4989481;28;20179;-75
2023/09/10 11:05:19;;;;;;;8.48;7.28;;;46.00;1.00;;;;;;4985526;28;20199;-77
2023/09/10 11:07:45;;;;;;;12.25;7.05;;;45.90;1.00;;;;;;4979898;28;20197;-76
2023/09/10 11:10:28;;;;;;;7.78;6.43;;;46.70;1.00;;;;;;4993667;28;20658;-75
2023/09/10 11:13:07;;;;;;;8.10;6.15;;;46.90;1.00;;;;;;4985750;28;20233;-75
2023/09/10 11:15:33;;;;;;;10.93;6.05;;;47.50;1.00;;;;;;4992401;28;20711;-73
2023/09/10 11:18:37;;;;;;;9.07;6.22;;;47.90;1.00;;;;;;4993114;28;20214;-76
2023/09/10 11:21:10;;;;;;;6.82;5.63;;;48.50;1.00;;;;;;4991067;28;20194;-78
2023/09/10 11:23:38;;;;;;;6.68;5.13;;;48.50;1.00;;;;;;4992740;28;20183;-76
2023/09/10 11:26:13;;;;;;;6.50;5.55;;;48.50;1.00;;;;;;4992683;28;20552;-75
2023/09/10 11:28:54;;;;;;;8.82;5.68;;;48.10;1.00;;;;;;4974719;28;20198;-76
2023/09/10 11:31:47;;;;;;;7.60;5.90;;;48.10;1.00;;;;;;4990584;28;20184;-75
2023/09/10 11:34:15;;;;;;;7.57;6.00;;;48.90;1.00;;;;;;4987730;28;20217;-75
2023/09/10 11:36:48;;;;;;;6.72;5.43;;;49.00;1.00;;;;;;4992702;28;20179;-77
2023/09/10 11:39:16;;;;;;;6.03;5.35;;;49.20;1.00;;;;;;4975099;28;20269;-76
2023/09/10 11:41:44;;;;;;;6.05;5.45;;;49.20;1.00;;;;;;4992284;28;20187;-77
2023/09/10 11:44:09;;;;;;;10.10;5.80;;;49.40;1.00;;;;;;4974835;28;20319;-77
2023/09/10 11:46:37;;;;;;;6.75;5.47;;;49.60;1.00;;;;;;4974723;28;20268;-76
2023/09/10 11:49:02;;;;;;;7.70;5.40;;;49.40;1.00;;;;;;4992305;28;20178;-76
2023/09/10 11:51:28;;;;;;;8.50;5.75;;;48.90;1.00;;;;;;4971553;28;20560;-76
2023/09/10 11:53:54;;;;;;;7.63;5.72;;;48.90;1.00;;;;;;4992011;28;20218;-77
2023/09/10 11:56:19;;;;;;;6.05;5.40;;;48.90;1.00;;;;;;4992445;28;20178;-75
2023/09/10 11:58:45;;;;;;;7.32;5.40;;;49.30;1.00;;;;;;4992054;28;20269;-76
2023/09/10 12:01:11;;;;;;;6.80;5.40;;;49.60;1.00;;;;;;4974467;28;20660;-76
2023/09/10 12:03:39;;;;;;;6.00;5.25;;;49.40;1.00;;;;;;4991338;28;20221;-75
2023/09/10 12:06:05;;;;;;;9.10;5.68;;;49.40;1.00;;;;;;4991436;28;20214;-76
2023/09/10 12:08:31;;;;;;;6.28;5.18;;;49.40;1.00;;;;;;4992017;28;20198;-76
2023/09/10 12:11:00;;;;;;;5.90;5.40;;;49.70;1.00;;;;;;4992031;28;20245;-75
2023/09/10 12:13:26;;;;;;;7.25;5.30;;;50.20;1.00;;;;;;4974341;28;20229;-75
2023/09/10 12:15:55;;;;;;;7.57;5.63;;;49.30;1.00;;;;;;4991984;28;20234;-75
2023/09/10 12:18:21;;;;;;;6.47;4.93;;;49.00;1.00;;;;;;4992063;28;20245;-75
2023/09/10 12:20:48;;;;;;;5.78;5.07;;;49.20;1.00;;;;;;4991446;28;20467;-75
2023/09/10 12:23:13;;;;;;;9.23;5.80;;;48.70;1.00;;;;;;4991954;28;20181;-78
2023/09/10 12:25:39;;;;;;;7.18;5.85;;;48.30;1.00;;;;;;4989531;28;20211;-73
2023/09/10 12:28:07;;;;;;;7.82;5.70;;;47.50;1.00;;;;;;4985422;28;20549;-75
2023/09/10 12:30:33;;;;;;;6.70;5.72;;;47.50;1.00;;;;;;4991183;28;20190;-76
2023/09/10 12:32:59;;;;;;;5.68;5.07;;;47.90;1.00;;;;;;4988181;28;20783;-76
2023/09/10 12:35:25;;;;;;;7.60;5.38;;;47.90;1.00;;;;;;4973668;28;20253;-77
2023/09/10 12:37:52;;;;;;;7.45;5.88;;;48.10;1.00;;;;;;4991372;28;20233;-76
2023/09/10 12:40:20;;;;;;;6.97;5.22;;;48.00;1.00;;;;;;4991669;28;20182;-77
2023/09/10 12:42:46;;;;;;;6.47;4.85;;;48.10;1.00;;;;;;4991000;28;20182;-75
2023/09/10 12:45:13;;;;;;;6.10;5.20;;;48.50;1.00;;;;;;4973698;28;20584;-75